Time;durP1;ratioP1;P1;durP2;ratioP2;P2;SDS_P1;SDS_P2;PMS_P1;PMS_P2;Temp;Humidity;BMP_temperature;BMP_pressure;BME280_temperature;BME280_humidity;BME280_pressure;Samples;Min_cycle;Max_cycle;Signal;HPM_P1;HPM_P2
2022/08/02 00:00:18;;;;;;;6.32;2.40;;;;;;;21.46;51.22;92565.06;5051135;28;20507;-76
2022/08/02 00:02:45;;;;;;;4.10;2.30;;;;;;;21.42;51.46;92549.03;5032618;28;20036;-76
2022/08/02 00:05:12;;;;;;;4.00;2.25;;;;;;;21.39;51.50;92560.34;5031687;28;20395;-76
2022/08/02 00:07:38;;;;;;;4.55;2.40;;;;;;;21.37;51.31;92558.06;5031953;28;20181;-76
2022/08/02 00:10:05;;;;;;;5.75;2.22;;;;;;;21.36;51.57;92558.41;5044462;28;20041;-76
2022/08/02 00:12:31;;;;;;;4.28;2.22;;;;;;;21.34;51.44;92561.41;5021773;28;20384;-76
2022/08/02 00:14:57;;;;;;;5.82;2.30;;;;;;;21.33;51.23;92554.53;5018707;28;20320;-76
2022/08/02 00:17:23;;;;;;;4.10;2.38;;;;;;;21.32;51.31;92554.88;5020582;28;20506;-76
2022/08/02 00:19:48;;;;;;;5.00;2.35;;;;;;;21.29;51.50;92553.69;5032856;28;20025;-76
2022/08/02 00:22:14;;;;;;;3.55;2.30;;;;;;;21.26;51.38;92554.41;5040304;28;20041;-76
2022/08/02 00:24:40;;;;;;;4.22;2.53;;;;;;;21.25;51.53;92555.53;5032957;28;20052;-76
2022/08/02 00:27:07;;;;;;;5.15;2.40;;;;;;;21.18;52.48;92550.81;5044561;28;20071;-76
2022/08/02 00:29:33;;;;;;;5.20;2.33;;;;;;;21.16;52.01;92560.28;5031046;28;20486;-76
2022/08/02 00:31:59;;;;;;;5.40;2.40;;;;;;;21.16;51.64;92554.97;5050582;28;20119;-76
2022/08/02 00:34:25;;;;;;;3.45;2.08;;;;;;;21.17;51.39;92551.19;5050387;28;20150;-76
2022/08/02 00:36:51;;;;;;;3.60;2.10;;;;;;;21.20;50.94;92553.16;5024671;28;20642;-76
2022/08/02 00:39:16;;;;;;;4.82;2.03;;;;;;;21.26;50.34;92554.41;5022785;28;20099;-76
2022/08/02 00:41:48;;;;;;;3.67;2.17;;;;;;;21.32;49.87;92555.69;5032811;28;20029;-76
2022/08/02 00:44:15;;;;;;;4.50;2.30;;;;;;;21.39;49.30;92552.34;5050512;28;20025;-77
2022/08/02 00:46:41;;;;;;;3.40;2.00;;;;;;;21.48;48.87;92557.50;5028496;28;20041;-76
2022/08/02 00:49:07;;;;;;;5.10;2.10;;;;;;;21.55;48.67;92555.75;5049980;28;20482;-76
2022/08/02 00:51:33;;;;;;;3.22;1.95;;;;;;;21.61;48.29;92556.97;5032668;28;20037;-76
2022/08/02 00:53:58;;;;;;;3.90;1.92;;;;;;;21.69;47.98;92562.47;5029775;28;20056;-77
2022/08/02 00:56:24;;;;;;;5.93;2.30;;;;;;;21.73;47.74;92564.06;4996917;28;20045;-76
2022/08/02 00:58:49;;;;;;;3.83;2.20;;;;;;;21.78;47.72;92555.00;5045467;28;20038;-76
2022/08/02 01:01:15;;;;;;;6.32;2.30;;;;;;;21.79;47.50;92567.97;4999854;28;20094;-76
2022/08/02 01:03:40;;;;;;;4.15;2.30;;;;;;;21.82;47.02;92563.84;5016181;28;20087;-76
2022/08/02 01:06:06;;;;;;;4.22;2.17;;;;;;;21.83;47.37;92563.47;5029744;28;20045;-76
2022/08/02 01:08:32;;;;;;;7.57;2.20;;;;;;;21.81;47.63;92560.38;5038347;28;20124;-76
2022/08/02 01:10:58;;;;;;;3.75;2.20;;;;;;;21.86;46.78;92562.00;5030995;28;20042;-76
2022/08/02 01:13:24;;;;;;;6.22;2.13;;;;;;;21.89;46.46;92560.53;5013057;28;20029;-76
2022/08/02 01:16:13;;;;;;;3.80;2.00;;;;;;;21.96;46.25;92561.41;5022051;28;20112;-75
2022/08/02 01:18:44;;;;;;;8.00;2.17;;;;;;;22.05;45.83;92553.19;5030832;28;20040;-77
2022/08/02 01:21:27;;;;;;;4.10;2.00;;;;;;;22.08;45.59;92554.38;5030771;28;20108;-76
2022/08/02 01:24:07;;;;;;;3.80;2.25;;;;;;;22.11;45.57;92556.31;5012673;28;20029;-76
2022/08/02 01:26:49;;;;;;;5.10;2.00;;;;;;;22.20;44.99;92554.97;5012415;28;20432;-76
2022/08/02 01:29:27;;;;;;;4.13;2.10;;;;;;;22.28;44.77;92557.75;5019115;28;20402;-76
2022/08/02 01:32:15;;;;;;;5.45;2.10;;;;;;;22.31;44.63;92559.72;5038043;28;20224;-76
2022/08/02 01:34:55;;;;;;;3.13;1.90;;;;;;;22.32;44.75;92561.25;5013198;28;20033;-76
2022/08/02 01:37:34;;;;;;;3.80;2.10;;;;;;;22.36;44.61;92562.06;5030921;28;20102;-76
2022/08/02 01:40:12;;;;;;;4.50;2.10;;;;;;;22.34;44.69;92559.78;5017127;28;20029;-76
2022/08/02 01:42:44;;;;;;;4.00;1.98;;;;;;;22.39;44.47;92561.38;5013495;28;20079;-76
2022/08/02 01:45:12;;;;;;;3.58;1.88;;;;;;;22.37;44.49;92568.97;5053708;28;20041;-76
2022/08/02 01:47:40;;;;;;;4.38;2.10;;;;;;;22.44;44.01;92563.72;5032413;28;20032;-76
2022/08/02 01:50:11;;;;;;;4.18;2.20;;;;;;;22.45;44.28;92562.63;5053418;28;20514;-76
2022/08/02 01:52:44;;;;;;;4.95;2.13;;;;;;;22.48;44.06;92569.88;5035439;28;20457;-76
2022/08/02 01:55:20;;;;;;;3.83;1.98;;;;;;;22.52;43.91;92562.72;5032289;28;20044;-76
2022/08/02 01:57:56;;;;;;;3.35;2.00;;;;;;;22.65;43.24;92571.25;5042160;28;20115;-76
2022/08/02 02:00:25;;;;;;;3.35;2.00;;;;;;;22.64;43.60;92564.41;5033598;28;20025;-76
2022/08/02 02:02:53;;;;;;;3.33;1.70;;;;;;;22.63;43.63;92570.88;5035197;28;20067;-76
2022/08/02 02:05:21;;;;;;;4.28;1.90;;;;;;;22.66;43.88;92570.91;5019135;28;20407;-76
2022/08/02 02:07:50;;;;;;;3.30;1.90;;;;;;;22.68;43.75;92570.56;5034788;28;20090;-76
2022/08/02 02:10:31;;;;;;;5.07;2.00;;;;;;;22.69;43.67;92574.00;5052775;28;20025;-76
2022/08/02 02:13:04;;;;;;;5.00;1.90;;;;;;;22.73;43.54;92574.81;5018689;28;20556;-76
2022/08/02 02:15:32;;;;;;;4.53;2.20;;;;;;;22.80;42.75;92580.25;5052853;28;20671;-76
2022/08/02 02:18:00;;;;;;;3.65;1.80;;;;;;;22.86;42.54;92578.81;5034481;28;20394;-76
2022/08/02 02:20:26;;;;;;;3.35;1.80;;;;;;;22.86;42.69;92584.16;5035295;28;20090;-76
2022/08/02 02:22:52;;;;;;;3.50;2.00;;;;;;;22.88;42.63;92584.56;5040051;28;20038;-76
2022/08/02 02:25:19;;;;;;;4.15;1.98;;;;;;;22.94;42.41;92585.78;5020531;28;20033;-76
2022/08/02 02:27:53;;;;;;;3.67;2.03;;;;;;;22.79;42.92;92592.84;5034963;28;20032;-76
2022/08/02 02:30:18;;;;;;;8.40;2.08;;;;;;;22.70;43.16;92576.31;5018270;28;20033;-76
2022/08/02 02:32:47;;;;;;;4.25;1.80;;;;;;;22.75;42.33;92588.56;5051442;28;20048;-77
2022/08/02 02:35:15;;;;;;;5.47;1.70;;;;;;;22.83;41.82;92579.53;5033784;28;20063;-77
2022/08/02 02:37:43;;;;;;;3.63;1.60;;;;;;;22.82;41.46;92581.44;5034801;28;20411;-76
2022/08/02 02:40:10;;;;;;;3.17;1.77;;;;;;;22.80;41.75;92583.69;5052501;28;20037;-76
2022/08/02 02:42:37;;;;;;;2.88;1.60;;;;;;;22.86;40.92;92581.50;5034092;28;20479;-76
2022/08/02 02:45:03;;;;;;;6.78;1.70;;;;;;;22.80;40.85;92586.34;5051865;28;20063;-77
2022/08/02 02:47:31;;;;;;;2.83;1.40;;;;;;;22.93;40.60;92581.59;5051726;28;20064;-76
2022/08/02 02:49:58;;;;;;;3.90;1.42;;;;;;;22.88;40.62;92581.91;5030989;28;20140;-77
2022/08/02 02:52:25;;;;;;;3.03;1.50;;;;;;;22.99;40.02;92584.69;5033817;28;20040;-76
2022/08/02 02:54:52;;;;;;;4.38;1.30;;;;;;;22.95;39.72;92584.66;5017332;28;20471;-76
2022/08/02 02:57:19;;;;;;;2.67;1.60;;;;;;;22.87;40.02;92591.78;5033801;28;20033;-76
2022/08/02 02:59:46;;;;;;;3.42;1.50;;;;;;;22.87;39.70;92591.78;5052172;28;20466;-75
2022/08/02 03:02:12;;;;;;;2.90;1.40;;;;;;;22.78;39.75;92593.94;5041423;28;20087;-76
2022/08/02 03:04:40;;;;;;;4.45;1.30;;;;;;;22.85;39.53;92598.63;5042686;28;20537;-76
2022/08/02 03:07:06;;;;;;;2.67;1.40;;;;;;;22.76;39.65;92590.88;5050280;28;20024;-76
2022/08/02 03:09:32;;;;;;;2.28;1.40;;;;;;;22.71;39.53;92593.84;4996263;28;20060;-76
2022/08/02 03:11:58;;;;;;;2.20;1.20;;;;;;;22.89;39.10;92596.00;5031725;28;20038;-76
2022/08/02 03:14:23;;;;;;;1.40;1.10;;;;;;;22.81;39.66;92603.16;5003386;28;20037;-76
2022/08/02 03:16:52;;;;;;;2.30;1.30;;;;;;;22.85;38.84;92593.28;5043623;28;20402;-76
2022/08/02 03:19:19;;;;;;;4.15;1.30;;;;;;;22.83;38.92;92590.19;5012853;28;20578;-76
2022/08/02 03:21:46;;;;;;;2.42;1.27;;;;;;;22.82;38.65;92583.34;5030317;28;20029;-76
2022/08/02 03:24:13;;;;;;;3.25;1.20;;;;;;;22.77;39.26;92592.41;5044290;28;20039;-76
2022/08/02 03:26:39;;;;;;;1.95;1.13;;;;;;;22.76;38.50;92593.53;5019490;28;20483;-76
2022/08/02 03:29:05;;;;;;;1.70;1.20;;;;;;;22.76;38.67;92592.78;5026381;28;20091;-76
2022/08/02 03:31:31;;;;;;;2.42;1.30;;;;;;;22.68;39.16;92591.16;5051482;28;20032;-76
2022/08/02 03:33:58;;;;;;;2.28;1.17;;;;;;;22.62;39.12;92591.44;5033552;28;20486;-76
2022/08/02 03:36:29;;;;;;;2.83;1.10;;;;;;;22.53;37.95;92588.25;5048785;28;20559;-76
2022/08/02 03:38:56;;;;;;;1.30;1.00;;;;;;;22.54;38.36;92595.13;5028675;28;20522;-76
2022/08/02 03:41:22;;;;;;;2.08;1.10;;;;;;;22.42;38.83;92592.66;5033659;28;20033;-77
2022/08/02 03:43:49;;;;;;;1.13;1.00;;;;;;;22.36;39.10;92604.72;5033480;28;20119;-76
2022/08/02 03:46:18;;;;;;;1.90;1.10;;;;;;;22.38;39.11;92607.81;5047945;28;20511;-76
2022/08/02 03:48:46;;;;;;;2.63;1.02;;;;;;;22.32;39.14;92599.34;5031963;28;20040;-76
2022/08/02 03:51:12;;;;;;;5.40;1.20;;;;;;;22.29;39.02;92601.97;5049644;28;20124;-74
2022/08/02 03:53:38;;;;;;;1.92;1.00;;;;;;;22.24;39.48;92601.13;5031098;28;20096;-77
2022/08/02 03:56:05;;;;;;;1.58;0.95;;;;;;;22.18;39.59;92604.44;4997363;28;20045;-76
2022/08/02 03:58:31;;;;;;;1.55;1.00;;;;;;;22.13;39.83;92610.03;5029522;28;20043;-76
2022/08/02 04:00:57;;;;;;;2.28;1.17;;;;;;;22.08;40.14;92602.34;5017001;28;20100;-76
2022/08/02 04:03:23;;;;;;;3.50;1.33;;;;;;;22.07;39.86;92609.56;5049800;28;20048;-76
2022/08/02 04:05:49;;;;;;;1.60;1.15;;;;;;;22.08;39.46;92600.44;5016576;28;20041;-76
2022/08/02 04:08:15;;;;;;;2.92;1.02;;;;;;;22.08;39.11;92603.09;5029218;28;20538;-76
2022/08/02 04:13:44;;;;;;;1.20;0.95;;;;;;;22.00;39.71;92614.78;4950409;29;20043;-76
2022/08/02 04:16:19;;;;;;;1.67;1.10;;;;;;;21.96;40.13;92619.28;4934450;29;20606;-77
2022/08/02 04:18:56;;;;;;;1.95;1.00;;;;;;;21.91;39.87;92617.69;4983679;28;20048;-76
2022/08/02 04:21:26;;;;;;;1.23;0.98;;;;;;;21.91;39.98;92622.22;5019947;28;20084;-77
2022/08/02 04:23:53;;;;;;;1.50;0.90;;;;;;;21.89;39.67;92619.16;4996821;28;20117;-76
2022/08/02 04:26:20;;;;;;;3.88;1.08;;;;;;;21.89;39.72;92624.50;5013248;28;20334;-76
2022/08/02 04:28:47;;;;;;;0.85;0.80;;;;;;;21.86;40.14;92625.94;5024306;28;20037;-77
2022/08/02 04:31:14;;;;;;;1.48;1.02;;;;;;;21.83;40.30;92622.09;5032845;28;20070;-76
2022/08/02 04:33:40;;;;;;;2.00;1.00;;;;;;;21.82;40.42;92633.88;4996813;28;20107;-76
2022/08/02 04:36:06;;;;;;;1.35;0.90;;;;;;;21.80;40.51;92630.78;5030844;28;20450;-76
2022/08/02 04:38:32;;;;;;;1.33;1.00;;;;;;;21.80;40.44;92638.03;5030650;28;20045;-76
2022/08/02 04:40:58;;;;;;;1.10;0.90;;;;;;;21.79;40.56;92634.56;5013270;28;20033;-76
2022/08/02 04:43:23;;;;;;;1.77;1.10;;;;;;;21.80;40.94;92636.13;5032714;28;20032;-75
2022/08/02 04:45:52;;;;;;;1.35;1.00;;;;;;;21.79;41.84;92639.91;5032559;28;20116;-76
2022/08/02 04:48:18;;;;;;;1.15;1.00;;;;;;;21.76;42.65;92645.94;5037830;28;20431;-76
2022/08/02 04:50:44;;;;;;;5.53;1.10;;;;;;;21.78;42.52;92641.03;5030332;28;20489;-76
2022/08/02 04:53:09;;;;;;;4.00;1.10;;;;;;;21.77;41.99;92646.69;5051349;28;20133;-77
2022/08/02 04:55:35;;;;;;;1.25;1.00;;;;;;;21.79;42.08;92655.88;5044173;28;20041;-75
2022/08/02 04:58:02;;;;;;;1.20;1.00;;;;;;;21.84;41.50;92660.16;5042361;28;20514;-77
2022/08/02 05:00:28;;;;;;;1.38;1.08;;;;;;;21.98;40.60;92668.44;5034914;28;20037;-75
2022/08/02 05:02:58;;;;;;;2.75;1.33;;;;;;;22.06;41.01;92673.91;5025422;28;20033;-76
2022/08/02 05:05:24;;;;;;;1.35;0.90;;;;;;;22.02;42.20;92679.16;5046538;28;20040;-75
2022/08/02 05:07:50;;;;;;;1.90;1.20;;;;;;;22.10;42.11;92688.06;5045145;28;20021;-76
2022/08/02 05:10:18;;;;;;;4.38;1.30;;;;;;;22.04;42.73;92691.03;5023900;28;20419;-77
2022/08/02 05:12:43;;;;;;;2.42;1.20;;;;;;;22.18;42.94;92695.84;5047087;28;20033;-77
2022/08/02 05:15:11;;;;;;;3.15;1.40;;;;;;;22.06;42.97;92703.22;5052235;28;20090;-76
2022/08/02 05:17:37;;;;;;;2.10;1.27;;;;;;;22.10;43.31;92709.38;5050318;28;20040;-75
2022/08/02 05:20:04;;;;;;;1.88;1.23;;;;;;;21.98;44.22;92707.66;5030218;28;20044;-76
2022/08/02 05:22:30;;;;;;;1.75;1.10;;;;;;;21.89;45.25;92720.41;5051503;28;20025;-76
2022/08/02 05:24:58;;;;;;;3.15;1.40;;;;;;;21.86;46.68;92726.44;5035613;28;20152;-76
2022/08/02 05:27:24;;;;;;;2.75;1.70;;;;;;;21.84;47.45;92726.78;5048412;28;20116;-78
2022/08/02 05:29:50;;;;;;;4.38;1.67;;;;;;;21.87;48.34;92730.66;5051369;28;20086;-76
2022/08/02 05:32:17;;;;;;;2.65;1.50;;;;;;;21.85;49.38;92735.56;5031714;28;20053;-76
2022/08/02 05:34:43;;;;;;;3.58;1.75;;;;;;;21.83;49.31;92742.00;5011437;28;20544;-76
2022/08/02 05:37:08;;;;;;;3.00;1.70;;;;;;;21.96;50.00;92745.31;5052370;28;20045;-75
2022/08/02 05:39:34;;;;;;;3.13;1.88;;;;;;;21.95;50.19;92753.63;5031898;28;20033;-76
2022/08/02 05:41:59;;;;;;;7.00;1.90;;;;;;;21.90;50.53;92757.34;5046138;28;20043;-76
2022/08/02 05:44:25;;;;;;;3.75;1.95;;;;;;;21.88;52.28;92761.50;5046948;28;20041;-77
2022/08/02 05:46:50;;;;;;;2.90;1.70;;;;;;;21.90;53.07;92769.91;5029285;28;20037;-76
2022/08/02 05:49:16;;;;;;;2.65;1.70;;;;;;;21.97;50.65;92776.16;5035150;28;20029;-76
2022/08/02 05:52:12;;;;;;;2.83;1.60;;;;;;;21.96;50.31;92782.63;5013402;28;20041;-76
2022/08/02 05:54:38;;;;;;;5.15;1.75;;;;;;;22.00;47.09;92786.13;5024890;28;20041;-76
2022/08/02 05:57:29;;;;;;;6.90;2.00;;;;;;;22.13;46.49;92788.66;5051520;28;20505;-76
2022/08/02 06:00:12;;;;;;;2.78;1.60;;;;;;;22.18;48.48;92797.16;5051385;28;20422;-76
2022/08/02 06:03:15;;;;;;;3.20;1.80;;;;;;;22.24;48.52;92795.75;5043910;28;20466;-76
2022/08/02 06:06:13;;;;;;;3.42;1.80;;;;;;;22.30;46.31;92800.81;5033258;28;20546;-76
2022/08/02 06:08:43;;;;;;;2.92;1.60;;;;;;;22.89;47.02;92810.28;5029775;28;20046;-76
2022/08/02 06:11:13;;;;;;;3.25;1.80;;;;;;;23.27;46.18;92808.66;5033125;28;20500;-77
2022/08/02 06:13:41;;;;;;;3.60;1.85;;;;;;;23.80;46.08;92810.59;5043255;28;20394;-77
2022/08/02 06:16:07;;;;;;;4.05;1.98;;;;;;;24.71;44.81;92814.03;5027881;28;20041;-77
2022/08/02 06:18:34;;;;;;;4.35;2.00;;;;;;;25.57;42.31;92822.84;5050723;28;20474;-77
2022/08/02 06:21:02;;;;;;;3.55;1.83;;;;;;;26.16;41.13;92815.59;5031563;28;20378;-77
2022/08/02 06:23:28;;;;;;;4.05;2.10;;;;;;;25.89;39.60;92822.34;5032756;28;20044;-77
2022/08/02 06:25:55;;;;;;;3.25;1.73;;;;;;;26.79;38.61;92821.63;5045096;28;20037;-77
2022/08/02 06:28:21;;;;;;;4.57;1.80;;;;;;;27.27;37.18;92827.84;5036389;28;20032;-80
2022/08/02 06:30:49;;;;;;;3.42;1.75;;;;;;;27.95;35.34;92827.88;5054016;28;20046;-76
2022/08/02 06:33:15;;;;;;;3.47;2.00;;;;;;;28.03;34.38;92829.38;5052842;28;20024;-76
2022/08/02 06:36:18;;;;;;;3.33;1.70;;;;;;;28.84;33.06;92835.66;5035337;28;20049;-76
2022/08/02 06:38:51;;;;;;;3.35;1.80;;;;;;;29.10;32.52;92844.41;5034941;28;20029;-77
2022/08/02 06:41:18;;;;;;;3.25;1.80;;;;;;;29.36;31.77;92847.69;5052821;28;20086;-77
2022/08/02 06:44:00;;;;;;;4.15;1.90;;;;;;;29.79;31.78;92850.88;5035572;28;20033;-76
2022/08/02 06:46:27;;;;;;;2.80;1.80;;;;;;;29.42;32.24;92854.97;5037345;28;20040;-77
2022/08/02 06:48:53;;;;;;;3.17;1.80;;;;;;;29.13;33.03;92859.78;5053666;28;20041;-74
2022/08/02 06:51:18;;;;;;;3.15;1.83;;;;;;;28.61;34.29;92852.28;5052695;28;20029;-75
2022/08/02 06:53:44;;;;;;;4.32;1.90;;;;;;;28.32;35.27;92848.91;5034768;28;20041;-74
2022/08/02 06:56:10;;;;;;;5.38;2.00;;;;;;;28.40;33.93;92858.50;5034788;28;20037;-74
2022/08/02 06:58:36;;;;;;;4.75;2.00;;;;;;;28.38;35.14;92852.75;5034567;28;20040;-74
2022/08/02 07:01:05;;;;;;;4.65;2.05;;;;;;;28.50;34.49;92859.66;5018290;28;20029;-74
2022/08/02 07:03:35;;;;;;;8.30;2.42;;;;;;;28.05;35.76;92863.97;5034149;28;20114;-74
2022/08/02 07:06:01;;;;;;;4.10;2.20;;;;;;;27.74;36.39;92855.50;5034473;28;20029;-74
2022/08/02 07:08:31;;;;;;;4.18;2.42;;;;;;;27.33;37.00;92853.19;5034347;28;20047;-74
2022/08/02 07:11:00;;;;;;;7.45;2.20;;;;;;;27.44;37.77;92858.59;5035379;28;20052;-74
2022/08/02 07:13:27;;;;;;;4.93;2.60;;;;;;;27.28;37.43;92861.66;5052219;28;20040;-74
2022/08/02 07:15:53;;;;;;;5.13;2.60;;;;;;;26.96;39.87;92862.31;5034234;28;20045;-74
2022/08/02 07:18:19;;;;;;;9.57;2.90;;;;;;;26.49;38.60;92867.50;5052004;28;20033;-73
2022/08/02 07:20:45;;;;;;;4.97;2.40;;;;;;;26.41;39.56;92868.59;5017776;28;20127;-73
2022/08/02 07:23:11;;;;;;;5.05;2.42;;;;;;;26.17;40.81;92864.66;5051672;28;20037;-74
2022/08/02 07:25:36;;;;;;;3.72;2.42;;;;;;;26.12;41.13;92875.72;5051882;28;20037;-73
2022/08/02 07:28:03;;;;;;;4.45;2.40;;;;;;;26.23;41.53;92876.59;5051841;28;20471;-73
2022/08/02 07:30:30;;;;;;;8.35;2.40;;;;;;;26.56;39.80;92883.66;5052211;28;20250;-73
2022/08/02 07:32:56;;;;;;;3.85;2.10;;;;;;;26.98;39.41;92870.78;5033644;28;20033;-74
2022/08/02 07:35:21;;;;;;;5.38;2.50;;;;;;;26.91;38.30;92876.13;5017579;28;20102;-73
2022/08/02 07:37:47;;;;;;;4.13;2.28;;;;;;;26.67;39.58;92875.66;5033997;28;20073;-73
2022/08/02 07:40:14;;;;;;;4.28;2.45;;;;;;;26.68;39.84;92871.84;5051546;28;20087;-73
2022/08/02 07:42:40;;;;;;;3.83;2.40;;;;;;;27.04;38.75;92873.84;5033736;28;20032;-74
2022/08/02 07:45:06;;;;;;;4.53;2.38;;;;;;;27.03;39.37;92878.47;5051526;28;20033;-73
2022/08/02 07:47:38;;;;;;;4.38;2.30;;;;;;;26.38;40.06;92878.16;5051487;28;20491;-73
2022/08/02 07:50:05;;;;;;;8.90;2.63;;;;;;;26.45;40.55;92872.06;5034018;28;20529;-73
2022/08/02 07:52:30;;;;;;;4.90;2.80;;;;;;;26.87;39.89;92876.09;5051247;28;20072;-73
2022/08/02 07:54:56;;;;;;;4.30;2.65;;;;;;;27.15;39.54;92869.25;5052346;28;20041;-73
2022/08/02 07:57:21;;;;;;;7.13;2.40;;;;;;;27.46;39.64;92872.41;5052157;28;20530;-73
2022/08/02 07:59:47;;;;;;;5.65;2.55;;;;;;;27.39;38.59;92875.88;5034455;28;20036;-73
2022/08/02 08:02:13;;;;;;;4.70;2.50;;;;;;;27.20;40.18;92872.38;5034248;28;20512;-73
2022/08/02 08:04:40;;;;;;;5.10;2.75;;;;;;;26.96;40.64;92873.06;5051448;28;20040;-73
2022/08/02 08:07:08;;;;;;;4.57;2.80;;;;;;;26.53;40.71;92870.22;5052326;28;20032;-73
2022/08/02 08:09:38;;;;;;;5.18;2.55;;;;;;;26.07;42.44;92865.34;5033269;28;20033;-73
2022/08/02 08:12:05;;;;;;;5.30;3.38;;;;;;;26.11;43.76;92860.78;5034022;28;20045;-75
2022/08/02 08:14:31;;;;;;;6.55;2.88;;;;;;;26.49;41.72;92864.81;5051032;28;20402;-73
2022/08/02 08:16:56;;;;;;;6.13;2.60;;;;;;;26.74;42.38;92867.63;5033235;28;20044;-73
2022/08/02 08:19:22;;;;;;;5.30;2.53;;;;;;;26.63;43.20;92871.41;5051111;28;20040;-74
2022/08/02 08:21:47;;;;;;;4.43;2.75;;;;;;;26.76;41.19;92862.63;5016624;28;20029;-73
2022/08/02 08:24:13;;;;;;;5.28;2.80;;;;;;;26.81;42.32;92871.47;5033332;28;20426;-73
2022/08/02 08:26:39;;;;;;;7.22;2.85;;;;;;;26.38;41.57;92862.06;5051190;28;20106;-73
2022/08/02 08:29:06;;;;;;;7.05;2.85;;;;;;;26.21;43.30;92861.97;5033136;28;20052;-73
2022/08/02 08:31:32;;;;;;;6.85;3.08;;;;;;;26.27;42.70;92858.56;5050926;28;20069;-73
2022/08/02 08:33:58;;;;;;;4.63;2.88;;;;;;;26.35;41.80;92860.16;5050862;28;20044;-73
2022/08/02 08:36:23;;;;;;;5.45;2.72;;;;;;;26.48;42.50;92865.97;5016371;28;20146;-73
2022/08/02 08:38:49;;;;;;;5.93;2.55;;;;;;;26.77;42.84;92856.13;5016505;28;20452;-73
2022/08/02 08:41:16;;;;;;;7.05;3.17;;;;;;;26.73;42.59;92857.28;5050742;28;20047;-73
2022/08/02 08:43:42;;;;;;;6.25;3.00;;;;;;;26.56;42.34;92853.38;5050891;28;20497;-73
2022/08/02 08:46:10;;;;;;;7.75;3.05;;;;;;;26.73;41.40;92862.66;5055043;28;20052;-73
2022/08/02 08:48:41;;;;;;;5.93;3.00;;;;;;;26.83;40.81;92864.59;5054682;28;20061;-73
2022/08/02 08:51:12;;;;;;;5.23;2.87;;;;;;;27.04;41.25;92863.84;5037042;28;20494;-73
2022/08/02 08:53:41;;;;;;;6.65;3.03;;;;;;;27.10;40.67;92864.28;5036575;28;20278;-73
2022/08/02 08:56:10;;;;;;;4.38;2.80;;;;;;;27.11;41.65;92863.09;5054711;28;20033;-73
2022/08/02 08:58:37;;;;;;;7.05;2.80;;;;;;;27.24;41.18;92863.56;5036712;28;20079;-73
2022/08/02 09:01:03;;;;;;;4.55;2.78;;;;;;;27.13;40.62;92861.59;5054650;28;20102;-73
2022/08/02 09:03:29;;;;;;;4.80;2.80;;;;;;;26.96;41.40;92862.31;5054555;28;20108;-73
2022/08/02 09:05:57;;;;;;;5.45;3.08;;;;;;;27.19;40.70;92867.34;5053919;28;20108;-73
2022/08/02 09:08:23;;;;;;;4.78;2.80;;;;;;;27.24;40.80;92863.56;5020451;28;20048;-74
2022/08/02 09:10:49;;;;;;;6.18;2.80;;;;;;;27.18;41.23;92871.97;5036689;28;20043;-73
2022/08/02 09:13:16;;;;;;;5.53;2.80;;;;;;;27.21;40.61;92867.78;5020395;28;20029;-73
2022/08/02 09:15:44;;;;;;;7.07;2.88;;;;;;;27.38;41.86;92872.41;5036367;28;20063;-73
2022/08/02 09:18:11;;;;;;;6.78;2.97;;;;;;;27.30;40.24;92860.09;5054297;28;20029;-73
2022/08/02 09:21:00;;;;;;;4.43;2.75;;;;;;;27.33;41.49;92864.72;5003811;28;20071;-73
2022/08/02 09:23:33;;;;;;;5.60;2.83;;;;;;;27.36;40.20;92868.56;5054179;28;20110;-73
2022/08/02 09:26:01;;;;;;;4.47;2.80;;;;;;;27.46;41.08;92867.03;5054033;28;20494;-74
2022/08/02 09:28:29;;;;;;;5.13;3.08;;;;;;;27.10;40.86;92865.03;5036236;28;20395;-73
2022/08/02 09:31:08;;;;;;;5.60;2.85;;;;;;;27.23;40.33;92864.72;5036450;28;20045;-73
2022/08/02 09:33:37;;;;;;;7.25;2.58;;;;;;;27.37;40.63;92870.88;5036259;28;20111;-73
2022/08/02 09:36:08;;;;;;;5.60;2.70;;;;;;;27.48;41.01;92867.44;5036188;28;20047;-73
2022/08/02 09:38:35;;;;;;;5.93;2.80;;;;;;;27.69;39.66;92870.09;5019719;28;20037;-73
2022/08/02 09:41:02;;;;;;;7.45;2.80;;;;;;;27.24;41.33;92866.25;5054300;28;20623;-73
2022/08/02 09:43:40;;;;;;;6.03;2.80;;;;;;;27.36;41.40;92868.56;5053802;28;20045;-74
2022/08/02 09:46:19;;;;;;;6.53;2.70;;;;;;;27.52;41.60;92866.28;5019443;28;20044;-73
2022/08/02 09:48:58;;;;;;;7.10;2.50;;;;;;;27.49;42.37;92871.63;5035976;28;20041;-73
2022/08/02 09:51:29;;;;;;;4.53;2.83;;;;;;;27.54;41.57;92874.72;5053743;28;20060;-73
2022/08/02 09:53:57;;;;;;;5.45;3.40;;;;;;;27.40;41.59;92869.31;5053517;28;20518;-73
2022/08/02 09:56:24;;;;;;;5.85;2.58;;;;;;;27.30;41.45;92872.78;5053398;28;20029;-74
2022/08/02 09:58:53;;;;;;;5.72;2.80;;;;;;;27.37;40.80;92864.72;5053746;28;20048;-73
2022/08/02 10:01:40;;;;;;;4.50;2.80;;;;;;;27.60;42.33;92859.72;5053662;28;20040;-74
2022/08/02 10:04:09;;;;;;;5.57;2.72;;;;;;;27.80;41.52;92865.50;5035466;28;20037;-74
2022/08/02 10:06:37;;;;;;;3.83;2.47;;;;;;;28.15;40.79;92863.94;5053687;28;20167;-73
2022/08/02 10:09:07;;;;;;;4.45;2.78;;;;;;;28.26;39.28;92863.94;5053403;28;20033;-73
2022/08/02 10:11:34;;;;;;;5.88;2.80;;;;;;;28.37;40.42;92853.91;5035660;28;20155;-73
2022/08/02 10:14:01;;;;;;;5.10;2.72;;;;;;;28.40;39.91;92846.97;5035936;28;20640;-73
2022/08/02 10:16:27;;;;;;;4.65;2.78;;;;;;;28.54;38.96;92857.72;5018746;28;20472;-73
2022/08/02 10:18:54;;;;;;;4.38;2.70;;;;;;;28.23;37.73;92853.94;5053155;28;20041;-73
2022/08/02 10:22:00;;;;;;;4.28;2.67;;;;;;;28.22;39.41;92853.16;5053210;28;20036;-73
2022/08/02 10:24:27;;;;;;;4.03;2.70;;;;;;;28.41;38.54;92843.88;5053117;28;20037;-73
2022/08/02 10:26:54;;;;;;;5.82;2.60;;;;;;;28.29;39.62;92838.94;5053005;28;20033;-73
2022/08/02 10:29:33;;;;;;;5.15;2.72;;;;;;;28.12;39.61;92835.09;5052992;28;20033;-73
2022/08/02 10:32:25;;;;;;;3.75;2.45;;;;;;;28.24;38.46;92839.34;5034960;28;20175;-73
2022/08/02 10:34:55;;;;;;;;;;;;;;;28.13;38.77;92838.59;5031757;28;20045;-73
2022/08/02 10:37:32;;;;;;;5.15;2.70;;;;;;;28.38;38.55;92838.53;5053008;28;19919;-73
2022/08/02 10:39:58;;;;;;;4.90;2.80;;;;;;;28.57;38.09;92840.75;5052757;28;20049;-74
2022/08/02 10:42:46;;;;;;;10.05;2.50;;;;;;;28.77;37.26;92835.69;5052685;28;20029;-73
2022/08/02 10:45:14;;;;;;;3.75;2.33;;;;;;;28.30;36.15;92831.63;5052608;28;20124;-73
2022/08/02 10:48:04;;;;;;;3.38;2.30;;;;;;;28.43;36.31;92835.41;5034913;28;20071;-74
2022/08/02 10:50:48;;;;;;;4.88;2.38;;;;;;;28.64;36.88;92834.59;5052596;28;20117;-73
2022/08/02 10:53:27;;;;;;;5.70;2.60;;;;;;;28.38;38.34;92828.50;5052532;28;20430;-73
2022/08/02 10:55:58;;;;;;;4.65;2.65;;;;;;;27.85;38.54;92831.31;5034623;28;20118;-73
2022/08/02 10:58:26;;;;;;;5.05;2.80;;;;;;;27.78;38.50;92818.63;5052438;28;20044;-73
2022/08/02 11:00:53;;;;;;;4.50;2.60;;;;;;;28.07;38.40;92824.00;5034862;28;20334;-73
2022/08/02 11:03:27;;;;;;;4.18;2.50;;;;;;;28.53;37.85;92825.78;5052229;28;20033;-74
2022/08/02 11:06:02;;;;;;;4.47;2.50;;;;;;;28.65;39.11;92828.81;5051904;28;20040;-74
2022/08/02 11:08:28;;;;;;;5.40;2.70;;;;;;;28.64;38.89;92815.72;5052031;28;20112;-73
2022/08/02 11:11:18;;;;;;;5.57;2.50;;;;;;;28.11;38.55;92814.75;5034491;28;20506;-73
2022/08/02 11:14:07;;;;;;;4.85;2.83;;;;;;;28.08;39.33;92810.16;5027002;28;20048;-74
2022/08/02 11:16:55;;;;;;;7.72;2.83;;;;;;;27.57;39.83;92812.13;5052043;28;20025;-73
2022/08/02 11:19:25;;;;;;;6.82;2.80;;;;;;;27.41;40.54;92806.38;5034415;28;20065;-73
2022/08/02 11:22:10;;;;;;;5.38;2.88;;;;;;;27.58;40.97;92807.50;5034499;28;20430;-74
2022/08/02 11:24:38;;;;;;;5.18;2.53;;;;;;;27.51;41.28;92805.59;5051974;28;20419;-73
2022/08/02 11:27:05;;;;;;;7.03;2.50;;;;;;;27.36;40.07;92801.38;5051850;28;20024;-73
2022/08/02 11:29:39;;;;;;;6.50;2.78;;;;;;;27.65;38.63;92799.44;5034185;28;20399;-73
2022/08/02 11:32:16;;;;;;;3.90;2.38;;;;;;;28.04;39.18;92785.19;5034426;28;20044;-73
2022/08/02 11:34:44;;;;;;;3.95;2.42;;;;;;;28.16;38.82;92786.69;5051709;28;20037;-74
2022/08/02 11:37:10;;;;;;;6.05;2.42;;;;;;;27.97;38.72;92779.81;5034084;28;20047;-74
2022/08/02 11:39:35;;;;;;;5.90;2.65;;;;;;;27.81;39.44;92785.59;5034156;28;20037;-73
2022/08/02 11:42:02;;;;;;;10.00;2.80;;;;;;;27.94;39.47;92780.59;5051562;28;20067;-73
2022/08/02 11:44:28;;;;;;;4.80;2.55;;;;;;;27.96;39.47;92783.66;5034033;28;20470;-73
2022/08/02 11:47:01;;;;;;;4.45;2.63;;;;;;;28.07;40.14;92786.31;5051505;28;20041;-73